createdAt,value
2017-08-17T00:01:05.269Z,6.30
2017-08-17T00:03:31.711Z,5.63
2017-08-17T00:05:58.110Z,5.70
2017-08-17T00:08:25.266Z,5.80
2017-08-17T00:10:52.403Z,7.30
2017-08-17T00:13:19.526Z,6.37
2017-08-17T00:15:45.930Z,5.50
2017-08-17T00:18:12.311Z,5.87
2017-08-17T00:20:38.726Z,5.60
2017-08-17T00:23:05.135Z,7.27
2017-08-17T00:25:31.560Z,5.70
2017-08-17T00:28:01.247Z,5.70
2017-08-17T00:30:27.902Z,4.97
2017-08-17T00:32:54.371Z,5.90
2017-08-17T00:35:23.002Z,6.23
2017-08-17T00:37:49.398Z,5.77
2017-08-17T00:40:15.822Z,6.20
2017-08-17T00:42:42.699Z,6.40
2017-08-17T00:45:09.861Z,5.10
2017-08-17T00:47:36.291Z,6.20
2017-08-17T00:50:02.734Z,5.57
2017-08-17T00:52:29.156Z,7.90
2017-08-17T00:54:55.599Z,6.90
2017-08-17T00:57:22.038Z,5.97
2017-08-17T00:59:48.455Z,8.23
2017-08-17T01:02:14.882Z,6.73
2017-08-17T01:04:41.395Z,6.40
2017-08-17T01:07:07.871Z,6.70
2017-08-17T01:09:38.446Z,6.10
2017-08-17T01:12:04.845Z,6.03
2017-08-17T01:14:31.331Z,5.50
2017-08-17T01:16:57.767Z,6.33
2017-08-17T01:19:24.927Z,5.50
2017-08-17T01:21:52.119Z,5.50
2017-08-17T01:24:18.558Z,6.00
2017-08-17T01:26:44.994Z,4.53
2017-08-17T01:29:11.427Z,6.07
2017-08-17T01:31:37.877Z,6.40
2017-08-17T01:34:04.331Z,4.77
2017-08-17T01:36:31.526Z,5.73
2017-08-17T01:38:57.986Z,5.17
2017-08-17T01:41:24.463Z,5.97
2017-08-17T01:43:51.642Z,5.13
2017-08-17T01:46:18.106Z,4.93
2017-08-17T01:48:48.368Z,4.63
2017-08-17T01:51:15.735Z,5.70
2017-08-17T01:53:42.195Z,5.67
2017-08-17T01:56:08.667Z,6.40
2017-08-17T01:58:35.119Z,6.73
2017-08-17T02:01:02.281Z,6.93
2017-08-17T02:03:28.724Z,7.90
2017-08-17T02:05:55.166Z,7.67
2017-08-17T02:08:21.579Z,7.20
2017-08-17T02:10:48.038Z,6.60
2017-08-17T02:13:14.462Z,8.30
2017-08-17T02:15:40.863Z,5.83
2017-08-17T02:18:07.283Z,6.67
2017-08-17T02:20:33.698Z,5.90
2017-08-17T02:23:00.098Z,6.17
2017-08-17T02:25:26.499Z,7.57
2017-08-17T02:27:53.642Z,6.07
2017-08-17T02:30:20.794Z,4.60
2017-08-17T02:32:51.690Z,4.63
2017-08-17T02:35:18.111Z,5.03
2017-08-17T02:37:44.570Z,4.33
2017-08-17T02:40:10.979Z,4.80
2017-08-17T02:42:37.411Z,4.73
2017-08-17T02:45:03.820Z,5.03
2017-08-17T02:47:30.210Z,4.80
2017-08-17T02:49:56.611Z,4.40
2017-08-17T02:52:23.012Z,3.80
2017-08-17T02:54:49.418Z,4.73
2017-08-17T02:57:15.815Z,5.57
2017-08-17T02:59:48.872Z,7.07
2017-08-17T03:02:15.595Z,5.93
2017-08-17T03:04:42.747Z,6.83
2017-08-17T03:07:09.899Z,8.47
2017-08-17T03:09:36.305Z,6.80
2017-08-17T03:12:02.710Z,7.60
2017-08-17T03:14:29.119Z,7.63
2017-08-17T03:16:55.522Z,7.93
2017-08-17T03:19:22.698Z,10.93
2017-08-17T03:21:49.135Z,12.77
2017-08-17T03:24:15.539Z,8.10
2017-08-17T03:26:48.721Z,13.67
2017-08-17T03:29:16.122Z,8.47
2017-08-17T03:31:42.522Z,7.60
2017-08-17T03:34:08.948Z,9.60
2017-08-17T03:36:36.095Z,9.10
2017-08-17T03:39:03.326Z,8.47
2017-08-17T03:41:29.748Z,7.73
2017-08-17T03:43:56.147Z,6.77
2017-08-17T03:46:22.545Z,6.87
2017-08-17T03:48:49.699Z,9.03
2017-08-17T03:51:16.822Z,9.70
2017-08-17T03:53:47.595Z,7.83
2017-08-17T03:56:15.023Z,8.77
2017-08-17T03:58:41.448Z,7.40
2017-08-17T04:01:07.891Z,7.60
2017-08-17T04:03:35.048Z,8.33
2017-08-17T04:06:01.439Z,7.43
2017-08-17T04:08:27.850Z,7.83
2017-08-17T04:10:54.247Z,9.30
2017-08-17T04:13:21.376Z,9.53
2017-08-17T04:15:47.780Z,10.17
2017-08-17T04:18:14.222Z,10.47
2017-08-17T04:20:42.888Z,10.43
2017-08-17T04:23:10.327Z,10.17
2017-08-17T04:25:36.763Z,9.40
2017-08-17T04:28:03.154Z,8.33
2017-08-17T04:30:29.598Z,8.30
2017-08-17T04:32:56.759Z,8.97
2017-08-17T04:35:23.151Z,9.23
2017-08-17T04:37:49.551Z,8.30
2017-08-17T04:40:15.939Z,7.50
2017-08-17T04:42:43.079Z,7.57
2017-08-17T04:45:09.474Z,8.50
2017-08-17T04:47:39.843Z,7.80
2017-08-17T04:50:06.287Z,9.00
2017-08-17T04:52:33.468Z,8.10
2017-08-17T04:54:59.868Z,9.30
2017-08-17T04:57:49.440Z,8.90
2017-08-17T05:00:15.846Z,8.87
2017-08-17T05:02:42.311Z,8.20
2017-08-17T05:05:09.503Z,10.73
2017-08-17T05:07:35.918Z,12.07
2017-08-17T05:10:02.348Z,10.23
2017-08-17T05:12:28.773Z,10.77
2017-08-17T05:14:55.231Z,11.47
2017-08-17T05:17:21.631Z,9.90
2017-08-17T05:19:48.818Z,11.57
2017-08-17T05:22:15.224Z,15.50
2017-08-17T05:24:42.363Z,14.40
2017-08-17T05:27:09.538Z,11.13
2017-08-17T05:29:35.939Z,12.33
2017-08-17T05:32:03.954Z,10.23
2017-08-17T05:34:30.367Z,10.23
2017-08-17T05:36:57.642Z,8.37
2017-08-17T05:39:24.075Z,7.70
2017-08-17T05:41:50.507Z,9.37
2017-08-17T05:44:16.894Z,9.73
2017-08-17T05:46:43.314Z,9.17
2017-08-17T05:49:09.694Z,8.80
2017-08-17T05:51:42.214Z,8.73
2017-08-17T05:54:08.898Z,7.40
2017-08-17T05:56:35.378Z,9.03
2017-08-17T05:59:01.766Z,10.33
2017-08-17T06:01:28.230Z,7.90
2017-08-17T06:03:54.645Z,7.90
2017-08-17T06:06:21.065Z,10.10
2017-08-17T06:08:47.475Z,8.63
2017-08-17T06:11:14.659Z,9.37
2017-08-17T06:13:41.879Z,8.53
2017-08-17T06:16:09.010Z,8.07
2017-08-17T06:18:35.406Z,8.87
2017-08-17T06:21:01.839Z,8.40
2017-08-17T06:23:28.221Z,8.17
2017-08-17T06:25:55.348Z,7.63
2017-08-17T06:28:21.754Z,7.43
2017-08-17T06:30:48.262Z,8.53
2017-08-17T06:33:14.654Z,8.50
2017-08-17T06:35:41.060Z,8.27
2017-08-17T06:38:07.483Z,7.00
2017-08-17T06:40:33.911Z,6.77
2017-08-17T06:43:00.330Z,7.83
2017-08-17T06:45:26.760Z,6.90
2017-08-17T06:47:53.168Z,7.60
2017-08-17T06:50:19.579Z,7.30
2017-08-17T06:52:45.994Z,7.33
2017-08-17T06:55:12.409Z,7.83
2017-08-17T06:57:38.806Z,7.60
2017-08-17T07:00:05.974Z,8.30
2017-08-17T07:02:32.427Z,7.47
2017-08-17T07:04:58.815Z,8.50
2017-08-17T07:07:25.949Z,6.57
2017-08-17T07:09:52.361Z,9.30
2017-08-17T07:12:18.774Z,8.80
2017-08-17T07:14:45.176Z,8.67
2017-08-17T07:17:12.339Z,9.07
2017-08-17T07:19:38.750Z,8.90
2017-08-17T07:22:05.891Z,11.20
2017-08-17T07:24:32.329Z,10.07
2017-08-17T07:26:59.512Z,10.40
2017-08-17T07:29:25.935Z,10.80
2017-08-17T07:31:52.363Z,10.03
2017-08-17T07:34:18.817Z,10.60
2017-08-17T07:36:45.314Z,11.63
2017-08-17T07:39:12.515Z,11.90
2017-08-17T07:41:38.938Z,11.53
2017-08-17T07:44:05.364Z,11.13
2017-08-17T07:46:31.763Z,10.27
2017-08-17T07:48:58.923Z,11.17
2017-08-17T07:51:25.373Z,11.33
2017-08-17T07:53:51.786Z,9.83
2017-08-17T07:56:18.299Z,7.37
2017-08-17T07:58:59.635Z,7.03
2017-08-17T08:01:26.030Z,5.87
2017-08-17T08:03:53.187Z,6.83
2017-08-17T08:06:20.343Z,7.00
2017-08-17T08:08:47.497Z,6.53
2017-08-17T08:11:13.936Z,7.13
2017-08-17T08:13:40.333Z,6.70
2017-08-17T08:16:06.746Z,5.70
2017-08-17T08:18:33.154Z,6.63
2017-08-17T08:20:59.555Z,6.80
2017-08-17T08:23:25.990Z,7.20
2017-08-17T08:25:53.112Z,6.90
2017-08-17T08:28:20.603Z,8.10
2017-08-17T08:30:47.757Z,7.90
2017-08-17T08:33:14.151Z,5.77
2017-08-17T08:35:40.551Z,4.90
2017-08-17T08:38:06.978Z,5.10
2017-08-17T08:40:33.389Z,5.47
2017-08-17T08:42:59.795Z,5.83
2017-08-17T08:45:30.273Z,5.20
2017-08-17T08:47:57.880Z,5.37
2017-08-17T08:50:24.271Z,4.90
2017-08-17T08:52:50.663Z,3.90
2017-08-17T08:55:17.824Z,4.73
2017-08-17T08:57:44.214Z,5.37
2017-08-17T09:00:10.610Z,4.50
2017-08-17T09:02:37.017Z,4.37
2017-08-17T09:05:04.239Z,5.43
2017-08-17T09:07:30.636Z,6.07
2017-08-17T09:09:57.030Z,5.60
2017-08-17T09:12:24.171Z,5.47
2017-08-17T09:14:51.318Z,3.90
2017-08-17T09:17:18.474Z,4.07
2017-08-17T09:19:46.535Z,3.93
2017-08-17T09:22:12.941Z,3.53
2017-08-17T09:24:39.324Z,3.90
2017-08-17T09:27:05.782Z,3.60
2017-08-17T09:29:32.180Z,4.30
2017-08-17T09:32:01.397Z,4.23
2017-08-17T09:34:29.711Z,5.00
2017-08-17T09:36:56.096Z,5.13
2017-08-17T09:39:22.537Z,5.10
2017-08-17T09:41:49.034Z,4.87
2017-08-17T09:44:15.783Z,4.53
2017-08-17T09:46:47.963Z,4.50
2017-08-17T09:49:15.133Z,5.43
2017-08-17T09:51:42.535Z,4.93
2017-08-17T09:54:08.943Z,6.03
2017-08-17T09:56:35.359Z,5.77
2017-08-17T09:59:01.781Z,7.43
2017-08-17T10:01:28.159Z,6.40
2017-08-17T10:03:54.551Z,4.87
2017-08-17T10:06:20.947Z,5.30
2017-08-17T10:08:47.376Z,5.33
2017-08-17T10:11:13.763Z,4.80
2017-08-17T10:13:40.149Z,6.03
2017-08-17T10:16:07.310Z,5.50
2017-08-17T10:18:33.716Z,5.93
2017-08-17T10:21:00.123Z,5.73
2017-08-17T10:23:26.524Z,5.33
2017-08-17T10:25:53.100Z,5.10
2017-08-17T10:28:19.515Z,4.70
2017-08-17T10:30:45.962Z,4.80
2017-08-17T10:33:13.814Z,4.80
2017-08-17T10:35:40.586Z,4.10
2017-08-17T10:38:08.119Z,4.20
2017-08-17T10:40:35.167Z,6.73
2017-08-17T10:43:01.582Z,4.93
2017-08-17T10:45:27.985Z,4.67
2017-08-17T10:47:55.157Z,6.30
2017-08-17T10:50:21.591Z,5.00
2017-08-17T10:52:48.028Z,4.97
2017-08-17T10:55:14.489Z,5.80
2017-08-17T10:57:40.911Z,5.40
2017-08-17T11:00:07.831Z,5.07
2017-08-17T11:02:34.268Z,5.33
2017-08-17T11:05:01.247Z,5.03
2017-08-17T11:07:27.671Z,5.23
2017-08-17T11:09:54.104Z,6.10
2017-08-17T11:12:20.722Z,5.30
2017-08-17T11:14:47.153Z,5.60
2017-08-17T11:17:13.557Z,5.57
2017-08-17T11:19:39.962Z,5.50
2017-08-17T11:22:06.368Z,5.30
2017-08-17T11:24:32.770Z,6.07
2017-08-17T11:26:59.898Z,6.63
2017-08-17T11:29:26.321Z,6.60
2017-08-17T11:31:52.714Z,5.87
2017-08-17T11:34:19.175Z,6.50
2017-08-17T11:36:45.580Z,6.03
2017-08-17T11:39:11.967Z,6.90
2017-08-17T11:41:38.375Z,5.40
2017-08-17T11:44:04.783Z,6.37
2017-08-17T11:46:31.171Z,5.80
2017-08-17T11:48:57.582Z,6.57
2017-08-17T11:51:23.926Z,5.53
2017-08-17T11:53:50.319Z,6.07
2017-08-17T11:56:16.794Z,6.93
2017-08-17T11:58:43.252Z,6.03
2017-08-17T12:01:09.646Z,6.60
2017-08-17T12:03:36.047Z,5.67
2017-08-17T12:06:02.455Z,4.90
2017-08-17T12:08:29.582Z,4.90
2017-08-17T12:10:56.005Z,5.10
2017-08-17T12:13:22.419Z,4.53
2017-08-17T12:15:48.831Z,5.60
2017-08-17T12:18:15.440Z,4.93
2017-08-17T12:20:41.818Z,5.03
2017-08-17T12:23:08.222Z,5.33
2017-08-17T12:25:34.621Z,4.77
2017-08-17T12:28:01.011Z,4.43
2017-08-17T12:30:27.422Z,4.60
2017-08-17T12:32:56.872Z,4.70
2017-08-17T12:35:23.274Z,4.00
2017-08-17T12:37:50.174Z,3.83
2017-08-17T12:40:16.585Z,4.30
2017-08-17T12:42:43.003Z,3.93
2017-08-17T12:45:09.435Z,3.73
2017-08-17T12:47:35.807Z,3.60
2017-08-17T12:50:02.241Z,4.33
2017-08-17T12:52:28.650Z,3.60
2017-08-17T12:54:55.080Z,3.70
2017-08-17T12:57:21.526Z,4.50
2017-08-17T12:59:47.906Z,4.33
2017-08-17T13:02:14.285Z,3.90
2017-08-17T13:04:40.698Z,4.87
2017-08-17T13:07:07.082Z,4.00
2017-08-17T13:09:33.505Z,4.17
2017-08-17T13:11:59.923Z,4.67
2017-08-17T13:14:26.314Z,4.50
2017-08-17T13:16:52.729Z,4.23
2017-08-17T13:19:19.141Z,4.77
2017-08-17T13:21:46.282Z,4.13
2017-08-17T13:24:13.422Z,4.13
2017-08-17T13:26:39.803Z,3.80
2017-08-17T13:29:06.199Z,4.93
2017-08-17T13:31:32.626Z,4.13
2017-08-17T13:34:12.442Z,4.43
2017-08-17T13:36:38.839Z,4.33
2017-08-17T13:39:05.270Z,3.73
2017-08-17T13:41:31.747Z,4.57
2017-08-17T13:43:58.159Z,4.23
2017-08-17T13:46:24.562Z,4.10
2017-08-17T13:48:50.951Z,4.20
2017-08-17T13:51:17.370Z,4.20
2017-08-17T13:53:43.742Z,4.10
2017-08-17T13:56:10.227Z,4.50
2017-08-17T13:58:36.640Z,3.60
2017-08-17T14:01:03.054Z,3.73
2017-08-17T14:03:29.458Z,4.33
2017-08-17T14:05:55.854Z,4.00
2017-08-17T14:08:22.265Z,5.10
2017-08-17T14:10:48.670Z,3.60
2017-08-17T14:13:15.066Z,3.90
2017-08-17T14:15:41.471Z,3.83
2017-08-17T14:18:07.865Z,3.80
2017-08-17T14:20:34.244Z,3.97
2017-08-17T14:23:00.657Z,3.73
2017-08-17T14:25:27.051Z,3.33
2017-08-17T14:27:53.438Z,4.30
2017-08-17T14:30:19.840Z,4.30
2017-08-17T14:32:46.991Z,3.93
2017-08-17T14:35:14.135Z,4.33
2017-08-17T14:37:40.523Z,4.00
2017-08-17T14:40:06.946Z,4.37
2017-08-17T14:42:33.343Z,4.83
2017-08-17T14:44:59.750Z,4.53
2017-08-17T14:47:26.196Z,4.20
2017-08-17T14:49:53.369Z,4.37
2017-08-17T14:52:19.789Z,4.43
2017-08-17T14:54:46.205Z,4.93
2017-08-17T14:57:13.334Z,5.07
2017-08-17T14:59:39.754Z,4.43
2017-08-17T15:02:06.243Z,3.70
2017-08-17T15:04:32.634Z,3.83
2017-08-17T15:06:59.026Z,4.30
2017-08-17T15:09:25.503Z,4.07
2017-08-17T15:11:51.886Z,4.20
2017-08-17T15:14:18.310Z,4.10
2017-08-17T15:16:44.707Z,3.77
2017-08-17T15:19:11.098Z,4.57
2017-08-17T15:21:37.505Z,4.50
2017-08-17T15:24:03.909Z,4.67
2017-08-17T15:26:30.343Z,4.50
2017-08-17T15:28:56.746Z,4.20
2017-08-17T15:31:23.132Z,4.70
2017-08-17T15:33:50.270Z,5.63
2017-08-17T15:36:16.647Z,18.43
2017-08-17T15:38:43.055Z,5.30
2017-08-17T15:41:09.490Z,4.73
2017-08-17T15:43:35.964Z,4.60
2017-08-17T15:46:02.354Z,5.57
2017-08-17T15:48:28.751Z,4.67
2017-08-17T15:50:55.170Z,5.73
2017-08-17T15:53:21.630Z,4.90
2017-08-17T15:55:48.046Z,5.63
2017-08-17T15:58:14.429Z,4.47
2017-08-17T16:00:40.849Z,4.47
2017-08-17T16:03:07.263Z,4.50
2017-08-17T16:05:34.406Z,4.53
2017-08-17T16:08:00.798Z,4.17
2017-08-17T16:10:27.206Z,4.87
2017-08-17T16:12:54.061Z,5.13
2017-08-17T16:15:20.525Z,4.70
2017-08-17T16:17:46.926Z,4.70
2017-08-17T16:20:13.310Z,4.73
2017-08-17T16:22:39.702Z,4.30
2017-08-17T16:25:06.090Z,4.80
2017-08-17T16:27:33.254Z,4.87
2017-08-17T16:29:59.637Z,4.00
2017-08-17T16:32:26.070Z,4.57
2017-08-17T16:34:52.471Z,3.87
2017-08-17T16:37:18.870Z,4.70
2017-08-17T16:39:46.022Z,4.67
2017-08-17T16:42:13.190Z,5.13
2017-08-17T16:44:39.574Z,5.93
2017-08-17T16:47:05.974Z,4.97
2017-08-17T16:49:32.382Z,4.30
2017-08-17T16:51:58.798Z,4.27
2017-08-17T16:54:25.935Z,4.90
2017-08-17T16:56:52.355Z,5.30
2017-08-17T16:59:18.751Z,5.37
2017-08-17T17:01:45.157Z,5.07
2017-08-17T17:04:11.553Z,4.13
2017-08-17T17:06:37.945Z,4.53
2017-08-17T17:09:04.352Z,4.70
2017-08-17T17:11:30.729Z,4.67
2017-08-17T17:13:57.202Z,5.00
2017-08-17T17:16:24.439Z,5.33
2017-08-17T17:18:50.846Z,4.17
2017-08-17T17:21:32.186Z,4.40
2017-08-17T17:23:58.610Z,4.90
2017-08-17T17:26:25.064Z,4.50
2017-08-17T17:28:51.467Z,5.37
2017-08-17T17:31:17.859Z,4.60
2017-08-17T17:33:44.251Z,4.43
2017-08-17T17:36:11.374Z,4.70
2017-08-17T17:38:37.770Z,4.50
2017-08-17T17:41:04.159Z,4.00
2017-08-17T17:43:31.299Z,4.47
2017-08-17T17:45:57.688Z,4.77
2017-08-17T17:48:24.095Z,4.27
2017-08-17T17:50:50.537Z,4.40
2017-08-17T17:53:16.930Z,5.27
2017-08-17T17:55:43.336Z,5.07
2017-08-17T17:58:09.742Z,4.77
2017-08-17T18:00:36.162Z,4.20
2017-08-17T18:03:02.538Z,4.53
2017-08-17T18:05:28.930Z,4.83
2017-08-17T18:07:55.327Z,5.03
2017-08-17T18:10:21.734Z,4.67
2017-08-17T18:12:48.152Z,5.23
2017-08-17T18:15:14.559Z,4.83
2017-08-17T18:17:41.027Z,5.70
2017-08-17T18:20:07.435Z,5.53
2017-08-17T18:22:33.878Z,4.93
2017-08-17T18:25:00.290Z,5.40
2017-08-17T18:27:26.689Z,5.30
2017-08-17T18:29:53.092Z,5.63
2017-08-17T18:32:19.483Z,4.97
2017-08-17T18:34:45.893Z,6.90
2017-08-17T18:37:13.024Z,6.43
2017-08-17T18:39:39.411Z,6.40
2017-08-17T18:42:05.819Z,5.70
2017-08-17T18:44:32.328Z,4.83
2017-08-17T18:46:58.730Z,5.03
2017-08-17T18:49:25.150Z,5.80
2017-08-17T18:52:27.871Z,5.03
2017-08-17T18:54:54.300Z,4.93
2017-08-17T18:57:20.711Z,5.17
2017-08-17T18:59:47.119Z,4.93
2017-08-17T19:02:13.524Z,6.33
2017-08-17T19:04:40.692Z,5.43
2017-08-17T19:07:07.071Z,6.27
2017-08-17T19:09:33.480Z,5.97
2017-08-17T19:11:59.922Z,5.77
2017-08-17T19:14:26.339Z,5.63
2017-08-17T19:16:52.769Z,5.60
2017-08-17T19:19:19.166Z,5.87
2017-08-17T19:21:46.315Z,5.70
2017-08-17T19:24:12.820Z,6.00
2017-08-17T19:26:39.298Z,5.87
2017-08-17T19:29:05.763Z,6.20
2017-08-17T19:31:32.209Z,6.20
2017-08-17T19:33:58.776Z,6.20
2017-08-17T19:36:25.304Z,5.43
2017-08-17T19:38:51.806Z,6.80
2017-08-17T19:41:19.053Z,6.30
2017-08-17T19:43:45.538Z,5.70
2017-08-17T19:46:12.031Z,5.83
2017-08-17T19:48:38.619Z,6.03
2017-08-17T19:51:05.266Z,6.60
2017-08-17T19:53:31.818Z,5.50
2017-08-17T19:55:58.344Z,6.40
2017-08-17T19:58:24.783Z,6.10
2017-08-17T20:00:51.196Z,6.90
2017-08-17T20:03:18.346Z,7.50
2017-08-17T20:05:44.764Z,7.50
2017-08-17T20:08:11.178Z,7.50
2017-08-17T20:10:37.568Z,7.13
2017-08-17T20:13:04.003Z,6.53
2017-08-17T20:15:30.417Z,6.40
2017-08-17T20:17:57.571Z,7.73
2017-08-17T20:20:24.729Z,7.37
2017-08-17T20:22:51.854Z,6.93
2017-08-17T20:25:18.239Z,5.43
2017-08-17T20:27:44.670Z,5.33
2017-08-17T20:30:11.111Z,5.37
2017-08-17T20:32:37.522Z,6.40
2017-08-17T20:35:03.945Z,7.13
2017-08-17T20:37:30.342Z,7.80
2017-08-17T20:39:56.753Z,7.70
2017-08-17T20:42:23.151Z,7.33
2017-08-17T20:44:49.575Z,7.23
2017-08-17T20:47:15.986Z,7.77
2017-08-17T20:49:42.403Z,7.30
2017-08-17T20:52:08.841Z,6.97
2017-08-17T20:54:35.230Z,6.33
2017-08-17T20:57:01.651Z,8.20
2017-08-17T20:59:28.058Z,6.43
2017-08-17T21:01:55.191Z,7.43
2017-08-17T21:04:21.598Z,6.90
2017-08-17T21:06:48.026Z,7.10
2017-08-17T21:09:14.429Z,7.00
2017-08-17T21:11:40.862Z,7.30
2017-08-17T21:14:07.247Z,7.73
2017-08-17T21:16:33.651Z,8.40
2017-08-17T21:19:00.058Z,8.43
2017-08-17T21:21:26.466Z,9.00
2017-08-17T21:23:52.883Z,7.77
2017-08-17T21:26:19.316Z,7.97
2017-08-17T21:28:45.754Z,7.40
2017-08-17T21:31:12.163Z,8.40
2017-08-17T21:33:38.576Z,7.80
2017-08-17T21:36:05.006Z,7.47
2017-08-17T21:38:31.398Z,7.30
2017-08-17T21:40:57.807Z,7.37
2017-08-17T21:43:24.236Z,6.00
2017-08-17T21:45:50.647Z,6.37
2017-08-17T21:48:17.067Z,6.87
2017-08-17T21:50:43.477Z,6.90
2017-08-17T21:53:10.599Z,7.83
2017-08-17T21:55:37.060Z,7.20
2017-08-17T21:58:04.200Z,8.00
2017-08-17T22:00:31.349Z,8.27
2017-08-17T22:02:58.502Z,7.23
2017-08-17T22:05:25.656Z,7.77
2017-08-17T22:07:52.046Z,7.97
2017-08-17T22:10:18.430Z,7.27
2017-08-17T22:12:44.845Z,7.40
2017-08-17T22:15:11.986Z,7.90
2017-08-17T22:17:38.435Z,9.37
2017-08-17T22:20:05.556Z,8.70
2017-08-17T22:22:31.957Z,8.33
2017-08-17T22:24:58.359Z,8.77
2017-08-17T22:27:24.792Z,7.67
2017-08-17T22:29:51.194Z,7.93
2017-08-17T22:32:17.608Z,8.90
2017-08-17T22:34:44.014Z,8.30
2017-08-17T22:37:10.482Z,9.13
2017-08-17T22:39:36.881Z,9.17
2017-08-17T22:42:03.274Z,9.37
2017-08-17T22:44:29.695Z,9.60
2017-08-17T22:46:56.858Z,9.00
2017-08-17T22:49:23.272Z,10.80
2017-08-17T22:51:49.711Z,10.93
2017-08-17T22:54:16.117Z,11.00
2017-08-17T22:56:42.517Z,10.03
2017-08-17T22:59:08.927Z,10.87
2017-08-17T23:01:36.151Z,10.30
2017-08-17T23:04:02.606Z,10.87
2017-08-17T23:06:29.749Z,12.00
2017-08-17T23:08:56.883Z,9.80
2017-08-17T23:11:23.298Z,11.50
2017-08-17T23:13:49.718Z,10.73
2017-08-17T23:16:16.190Z,9.73
2017-08-17T23:18:42.578Z,12.37
2017-08-17T23:21:08.998Z,10.70
2017-08-17T23:23:35.418Z,10.07
2017-08-17T23:26:01.810Z,9.77
2017-08-17T23:28:28.234Z,9.40
2017-08-17T23:30:54.647Z,10.27
2017-08-17T23:33:21.030Z,11.33
2017-08-17T23:35:48.184Z,10.50
2017-08-17T23:38:15.439Z,10.07
2017-08-17T23:40:42.651Z,11.17
2017-08-17T23:43:09.086Z,10.90
2017-08-17T23:45:35.491Z,10.57
2017-08-17T23:48:01.927Z,12.57
2017-08-17T23:50:28.319Z,11.27
2017-08-17T23:52:55.479Z,10.90
2017-08-17T23:55:22.621Z,11.33
2017-08-17T23:57:49.798Z,10.73
